createdAt,value
2022-12-28T00:00:00.602Z,1016.18
2022-12-28T00:01:04.809Z,1016.17
2022-12-28T00:02:09.066Z,1016.16
2022-12-28T00:03:13.227Z,1016.15
2022-12-28T00:04:17.392Z,1016.18
2022-12-28T00:05:21.626Z,1016.14
2022-12-28T00:06:25.850Z,1016.12
2022-12-28T00:07:29.972Z,1016.10
2022-12-28T00:08:34.229Z,1016.11
2022-12-28T00:09:38.484Z,1016.10
2022-12-28T00:11:08.086Z,1016.06
2022-12-28T00:11:46.863Z,1016.09
2022-12-28T00:12:51.037Z,1016.06
2022-12-28T00:13:55.243Z,1016.05
2022-12-28T00:14:59.378Z,1016.04
2022-12-28T00:16:03.609Z,1016.00
2022-12-28T00:17:07.789Z,1015.98
2022-12-28T00:18:12.938Z,1015.97
2022-12-28T00:19:16.806Z,1015.97
2022-12-28T00:20:21.051Z,1015.95
2022-12-28T00:21:25.289Z,1015.93
2022-12-28T00:22:29.362Z,1015.93
2022-12-28T00:23:33.577Z,1015.90
2022-12-28T00:24:37.803Z,1015.86
2022-12-28T00:25:41.973Z,1015.79
2022-12-28T00:26:46.227Z,1015.79
2022-12-28T00:27:50.518Z,1015.77
2022-12-28T00:28:59.880Z,1015.77
2022-12-28T00:29:58.936Z,1015.78
2022-12-28T00:31:03.052Z,1015.73
2022-12-28T00:32:07.377Z,1015.70
2022-12-28T00:33:11.480Z,1015.66
2022-12-28T00:34:15.752Z,1015.67
2022-12-28T00:35:19.928Z,1015.68
2022-12-28T00:36:24.100Z,1015.64
2022-12-28T00:37:28.295Z,1015.64
2022-12-28T00:38:32.544Z,1015.64
2022-12-28T00:39:36.604Z,1015.64
2022-12-28T00:40:40.784Z,1015.63
2022-12-28T00:41:45.035Z,1015.62
2022-12-28T00:42:49.276Z,1015.63
2022-12-28T00:43:53.437Z,1015.58
2022-12-28T00:44:57.634Z,1015.54
2022-12-28T00:46:01.871Z,1015.49
2022-12-28T00:47:05.968Z,1015.50
2022-12-28T00:48:10.141Z,1015.49
2022-12-28T00:49:14.544Z,1015.49
2022-12-28T00:50:18.742Z,1015.44
2022-12-28T00:51:22.920Z,1015.40
2022-12-28T00:52:27.190Z,1015.42
2022-12-28T00:53:31.466Z,1015.34
2022-12-28T00:54:35.604Z,1015.34
2022-12-28T00:55:39.819Z,1015.31
2022-12-28T00:56:43.900Z,1015.32
2022-12-28T00:57:48.063Z,1015.31
2022-12-28T00:58:52.436Z,1015.25
2022-12-28T00:59:56.510Z,1015.20
2022-12-28T01:01:01.004Z,1015.19
2022-12-28T01:02:05.011Z,1015.18
2022-12-28T01:03:09.194Z,1015.16
2022-12-28T01:04:13.317Z,1015.13
2022-12-28T01:05:17.602Z,1015.09
2022-12-28T01:06:21.785Z,1015.08
2022-12-28T01:07:25.997Z,1015.04
2022-12-28T01:08:30.232Z,1015.01
2022-12-28T01:09:34.458Z,1015.00
2022-12-28T01:10:41.557Z,1014.98
2022-12-28T01:11:44.838Z,1014.94
2022-12-28T01:12:49.002Z,1014.96
2022-12-28T01:13:53.323Z,1014.92
2022-12-28T01:14:58.373Z,1014.87
2022-12-28T01:16:02.374Z,1014.85
2022-12-28T01:17:06.338Z,1014.79
2022-12-28T01:18:10.474Z,1014.79
2022-12-28T01:19:14.651Z,1014.74
2022-12-28T01:20:18.963Z,1014.67
2022-12-28T01:21:23.140Z,1014.63
2022-12-28T01:22:27.303Z,1014.60
2022-12-28T01:23:31.488Z,1014.57
2022-12-28T01:24:35.694Z,1014.55
2022-12-28T01:25:39.881Z,1014.58
2022-12-28T01:26:44.154Z,1014.56
2022-12-28T01:27:48.297Z,1014.54
2022-12-28T01:28:52.508Z,1014.51
2022-12-28T01:29:56.717Z,1014.47
2022-12-28T01:31:00.981Z,1014.46
2022-12-28T01:32:05.232Z,1014.46
2022-12-28T01:33:09.240Z,1014.43
2022-12-28T01:34:13.435Z,1014.39
2022-12-28T01:35:17.587Z,1014.38
2022-12-28T01:36:21.770Z,1014.36
2022-12-28T01:37:26.018Z,1014.32
2022-12-28T01:38:30.359Z,1014.34
2022-12-28T01:39:34.497Z,1014.33
2022-12-28T01:40:38.676Z,1014.30
2022-12-28T01:41:42.909Z,1014.26
2022-12-28T01:42:47.176Z,1014.23
2022-12-28T01:43:51.375Z,1014.27
2022-12-28T01:44:55.574Z,1014.20
2022-12-28T01:45:59.887Z,1014.23
2022-12-28T01:47:03.854Z,1014.21
2022-12-28T01:48:08.178Z,1014.19
2022-12-28T01:49:12.322Z,1014.19
2022-12-28T01:50:16.538Z,1014.15
2022-12-28T01:51:20.787Z,1014.08
2022-12-28T01:52:24.969Z,1014.06
2022-12-28T01:53:29.085Z,1014.06
2022-12-28T01:54:33.329Z,1014.00
2022-12-28T01:55:37.437Z,1013.96
2022-12-28T01:56:41.646Z,1013.92
2022-12-28T01:57:45.787Z,1013.93
2022-12-28T01:58:50.986Z,1013.88
2022-12-28T01:59:54.830Z,1013.86
2022-12-28T02:00:59.328Z,1013.83
2022-12-28T02:02:03.740Z,1013.78
2022-12-28T02:03:07.467Z,1013.74
2022-12-28T02:04:11.776Z,1013.71
2022-12-28T02:05:15.925Z,1013.67
2022-12-28T02:06:20.197Z,1013.66
2022-12-28T02:07:24.364Z,1013.66
2022-12-28T02:08:28.512Z,1013.64
2022-12-28T02:09:32.906Z,1013.62
2022-12-28T02:10:42.295Z,1013.60
2022-12-28T02:11:41.213Z,1013.60
2022-12-28T02:12:45.351Z,1013.53
2022-12-28T02:13:49.478Z,1013.52
2022-12-28T02:14:53.611Z,1013.54
2022-12-28T02:15:57.899Z,1013.54
2022-12-28T02:17:02.236Z,1013.49
2022-12-28T02:18:06.272Z,1013.52
2022-12-28T02:19:10.401Z,1013.51
2022-12-28T02:20:14.668Z,1013.51
2022-12-28T02:21:18.939Z,1013.51
2022-12-28T02:22:23.147Z,1013.51
2022-12-28T02:23:27.220Z,1013.43
2022-12-28T02:24:34.431Z,1013.41
2022-12-28T02:25:37.609Z,1013.41
2022-12-28T02:26:41.673Z,1013.39
2022-12-28T02:27:45.964Z,1013.37
2022-12-28T02:28:50.218Z,1013.33
2022-12-28T02:29:54.398Z,1013.30
2022-12-28T02:30:58.679Z,1013.27
2022-12-28T02:32:02.804Z,1013.22
2022-12-28T02:33:07.029Z,1013.23
2022-12-28T02:34:11.341Z,1013.25
2022-12-28T02:35:15.504Z,1013.23
2022-12-28T02:36:19.654Z,1013.20
2022-12-28T02:37:23.814Z,1013.21
2022-12-28T02:38:28.097Z,1013.10
2022-12-28T02:39:32.286Z,1013.09
2022-12-28T02:40:36.522Z,1013.10
2022-12-28T02:41:54.715Z,1013.13
2022-12-28T02:42:57.906Z,1013.10
2022-12-28T02:44:02.005Z,1012.96
2022-12-28T02:45:06.255Z,1012.97
2022-12-28T02:46:10.468Z,1012.98
2022-12-28T02:47:14.593Z,1013.00
2022-12-28T02:48:18.714Z,1013.03
2022-12-28T02:49:23.000Z,1012.96
2022-12-28T02:50:27.245Z,1012.93
2022-12-28T02:51:31.465Z,1012.94
2022-12-28T02:52:35.525Z,1012.94
2022-12-28T02:53:39.707Z,1012.91
2022-12-28T02:54:43.927Z,1012.88
2022-12-28T02:55:48.017Z,1012.81
2022-12-28T02:56:52.259Z,1012.80
2022-12-28T02:57:56.554Z,1012.78
2022-12-28T02:59:00.708Z,1012.79
2022-12-28T03:00:04.929Z,1012.73
2022-12-28T03:01:09.210Z,1012.65
2022-12-28T03:02:13.373Z,1012.73
2022-12-28T03:03:17.556Z,1012.68
2022-12-28T03:04:21.705Z,1012.65
2022-12-28T03:05:25.885Z,1012.58
2022-12-28T03:06:30.700Z,1012.57
2022-12-28T03:07:34.350Z,1012.50
2022-12-28T03:08:38.504Z,1012.51
2022-12-28T03:09:42.644Z,1012.50
2022-12-28T03:10:46.775Z,1012.47
2022-12-28T03:11:51.012Z,1012.47
2022-12-28T03:12:55.235Z,1012.40
2022-12-28T03:14:13.437Z,1012.38
2022-12-28T03:15:16.487Z,1012.37
2022-12-28T03:16:20.727Z,1012.31
2022-12-28T03:17:24.816Z,1012.29
2022-12-28T03:18:29.035Z,1012.32
2022-12-28T03:19:33.289Z,1012.23
2022-12-28T03:20:37.546Z,1012.22
2022-12-28T03:21:41.596Z,1012.18
2022-12-28T03:22:45.926Z,1012.13
2022-12-28T03:23:49.995Z,1012.12
2022-12-28T03:24:54.240Z,1012.05
2022-12-28T03:25:58.487Z,1012.03
2022-12-28T03:27:02.686Z,1012.04
2022-12-28T03:28:06.846Z,1012.01
2022-12-28T03:29:11.035Z,1011.95
2022-12-28T03:30:15.243Z,1011.98
2022-12-28T03:31:19.337Z,1011.99
2022-12-28T03:32:23.538Z,1011.96
2022-12-28T03:33:27.807Z,1011.94
2022-12-28T03:34:31.966Z,1011.91
2022-12-28T03:35:36.184Z,1011.92
2022-12-28T03:36:46.451Z,1011.87
2022-12-28T03:37:49.224Z,1011.87
2022-12-28T03:38:53.405Z,1011.88
2022-12-28T03:39:57.630Z,1011.88
2022-12-28T03:41:01.773Z,1011.85
2022-12-28T03:42:06.053Z,1011.81
2022-12-28T03:43:10.274Z,1011.84
2022-12-28T03:44:14.437Z,1011.80
2022-12-28T03:45:44.865Z,1011.68
2022-12-28T03:46:22.899Z,1011.64
2022-12-28T03:47:33.138Z,1011.66
2022-12-28T03:48:35.924Z,1011.64
2022-12-28T03:49:40.141Z,1011.64
2022-12-28T03:50:44.336Z,1011.67
2022-12-28T03:51:48.598Z,1011.66
2022-12-28T03:52:52.773Z,1011.67
2022-12-28T03:53:57.043Z,1011.60
2022-12-28T03:55:01.220Z,1011.61
2022-12-28T03:56:05.418Z,1011.63
2022-12-28T03:57:09.575Z,1011.62
2022-12-28T03:58:13.713Z,1011.58
2022-12-28T03:59:17.859Z,1011.61
2022-12-28T04:00:22.178Z,1011.62
2022-12-28T04:01:26.578Z,1011.63
2022-12-28T04:02:30.676Z,1011.58
2022-12-28T04:03:34.896Z,1011.65
2022-12-28T04:04:38.988Z,1011.66
2022-12-28T04:05:43.287Z,1011.75
2022-12-28T04:06:47.443Z,1011.71
2022-12-28T04:07:51.637Z,1011.71
2022-12-28T04:08:55.741Z,1011.71
2022-12-28T04:09:59.965Z,1011.71
2022-12-28T04:11:04.181Z,1011.69
2022-12-28T04:12:08.288Z,1011.68
2022-12-28T04:13:12.661Z,1011.70
2022-12-28T04:14:16.905Z,1011.67
2022-12-28T04:15:21.049Z,1011.73
2022-12-28T04:16:25.381Z,1011.72
2022-12-28T04:17:29.526Z,1011.70
2022-12-28T04:18:33.784Z,1011.70
2022-12-28T04:19:37.928Z,1011.72
2022-12-28T04:20:42.086Z,1011.73
2022-12-28T04:21:46.413Z,1011.71
2022-12-28T04:22:50.543Z,1011.67
2022-12-28T04:23:54.839Z,1011.68
2022-12-28T04:24:58.926Z,1011.70
2022-12-28T04:26:03.208Z,1011.67
2022-12-28T04:27:07.322Z,1011.66
2022-12-28T04:28:11.655Z,1011.69
2022-12-28T04:29:15.890Z,1011.64
2022-12-28T04:30:20.147Z,1011.62
2022-12-28T04:31:24.488Z,1011.64
2022-12-28T04:32:28.566Z,1011.63
2022-12-28T04:33:32.793Z,1011.60
2022-12-28T04:34:37.035Z,1011.60
2022-12-28T04:35:44.184Z,1011.59
2022-12-28T04:36:47.306Z,1011.56
2022-12-28T04:37:51.561Z,1011.53
2022-12-28T04:38:55.649Z,1011.48
2022-12-28T04:39:59.953Z,1011.46
2022-12-28T04:41:04.227Z,1011.45
2022-12-28T04:42:08.255Z,1011.42
2022-12-28T04:43:12.423Z,1011.42
2022-12-28T04:44:16.800Z,1011.42
2022-12-28T04:45:22.301Z,1011.38
2022-12-28T04:46:25.212Z,1011.37
2022-12-28T04:47:29.272Z,1011.34
2022-12-28T04:48:33.548Z,1011.29
2022-12-28T04:49:37.724Z,1011.27
2022-12-28T04:50:41.866Z,1011.24
2022-12-28T04:51:46.139Z,1011.23
2022-12-28T04:52:56.408Z,1011.20
2022-12-28T04:53:59.259Z,1011.17
2022-12-28T04:55:03.515Z,1011.16
2022-12-28T04:56:07.695Z,1011.12
2022-12-28T04:57:11.924Z,1011.13
2022-12-28T04:58:16.001Z,1011.11
2022-12-28T04:59:20.320Z,1011.08
2022-12-28T05:00:24.506Z,1011.04
2022-12-28T05:01:29.012Z,1011.01
2022-12-28T05:02:47.136Z,1010.99
2022-12-28T05:03:55.483Z,1010.94
2022-12-28T05:04:54.280Z,1010.90
2022-12-28T05:05:58.456Z,1010.86
2022-12-28T05:07:02.703Z,1010.85
2022-12-28T05:08:06.816Z,1010.82
2022-12-28T05:09:11.042Z,1010.81
2022-12-28T05:10:15.248Z,1010.78
2022-12-28T05:11:19.412Z,1010.76
2022-12-28T05:12:23.679Z,1010.75
2022-12-28T05:13:27.852Z,1010.75
2022-12-28T05:14:36.759Z,1010.73
2022-12-28T05:15:36.224Z,1010.71
2022-12-28T05:16:40.603Z,1010.71
2022-12-28T05:17:44.774Z,1010.64
2022-12-28T05:18:48.830Z,1010.61
2022-12-28T05:19:53.005Z,1010.60
2022-12-28T05:20:57.259Z,1010.62
2022-12-28T05:22:01.506Z,1010.59
2022-12-28T05:23:05.715Z,1010.55
2022-12-28T05:24:09.827Z,1010.53
2022-12-28T05:25:14.089Z,1010.49
2022-12-28T05:26:18.284Z,1010.46
2022-12-28T05:27:22.552Z,1010.46
2022-12-28T05:28:26.764Z,1010.45
2022-12-28T05:29:30.937Z,1010.41
2022-12-28T05:30:35.156Z,1010.38
2022-12-28T05:31:39.425Z,1010.39
2022-12-28T05:32:43.559Z,1010.37
2022-12-28T05:33:48.836Z,1010.27
2022-12-28T05:34:52.634Z,1010.28
2022-12-28T05:35:56.857Z,1010.21
2022-12-28T05:37:01.127Z,1010.21
2022-12-28T05:38:05.357Z,1010.15
2022-12-28T05:39:09.468Z,1010.05
2022-12-28T05:40:13.723Z,1010.05
2022-12-28T05:41:20.926Z,1010.05
2022-12-28T05:42:24.233Z,1010.03
2022-12-28T05:43:28.498Z,1010.01
2022-12-28T05:44:32.535Z,1010.01
2022-12-28T05:45:36.792Z,1009.99
2022-12-28T05:46:41.117Z,1009.97
2022-12-28T05:47:45.255Z,1009.98
2022-12-28T05:48:49.487Z,1009.96
2022-12-28T05:49:53.747Z,1009.97
2022-12-28T05:50:57.830Z,1009.97
2022-12-28T05:52:08.009Z,1010.00
2022-12-28T05:53:10.849Z,1009.98
2022-12-28T05:54:15.046Z,1009.96
2022-12-28T05:55:19.163Z,1009.97
2022-12-28T05:56:23.385Z,1009.96
2022-12-28T05:57:27.643Z,1009.94
2022-12-28T05:58:31.777Z,1009.91
2022-12-28T05:59:35.949Z,1009.89
2022-12-28T06:00:40.160Z,1009.95
2022-12-28T06:01:44.402Z,1009.91
2022-12-28T06:02:48.579Z,1009.82
2022-12-28T06:03:52.711Z,1009.81
2022-12-28T06:04:56.889Z,1009.77
2022-12-28T06:06:00.999Z,1009.74
2022-12-28T06:07:05.360Z,1009.74
2022-12-28T06:08:09.388Z,1009.69
2022-12-28T06:09:13.697Z,1009.66
2022-12-28T06:10:17.835Z,1009.61
2022-12-28T06:11:21.961Z,1009.55
2022-12-28T06:12:26.210Z,1009.54
2022-12-28T06:13:30.403Z,1009.52
2022-12-28T06:14:34.649Z,1009.45
2022-12-28T06:15:38.710Z,1009.41
2022-12-28T06:16:43.042Z,1009.37
2022-12-28T06:17:47.115Z,1009.36
2022-12-28T06:18:51.289Z,1009.31
2022-12-28T06:19:55.430Z,1009.27
2022-12-28T06:20:59.649Z,1009.25
2022-12-28T06:22:03.908Z,1009.22
2022-12-28T06:23:07.974Z,1009.19
2022-12-28T06:24:12.307Z,1009.16
2022-12-28T06:25:16.500Z,1009.13
2022-12-28T06:26:20.710Z,1009.13
2022-12-28T06:27:24.876Z,1009.11
2022-12-28T06:28:29.119Z,1009.16
2022-12-28T06:29:33.292Z,1009.13
2022-12-28T06:30:37.497Z,1009.14
2022-12-28T06:31:41.804Z,1009.19
2022-12-28T06:32:45.932Z,1009.17
2022-12-28T06:33:50.171Z,1009.22
2022-12-28T06:34:54.412Z,1009.18
2022-12-28T06:35:58.541Z,1009.11
2022-12-28T06:37:02.764Z,1009.10
2022-12-28T06:38:07.008Z,1009.07
2022-12-28T06:39:11.111Z,1009.05
2022-12-28T06:40:15.439Z,1009.01
2022-12-28T06:41:19.532Z,1008.97
2022-12-28T06:42:23.664Z,1008.97
2022-12-28T06:43:27.902Z,1008.96
2022-12-28T06:44:32.000Z,1008.90
2022-12-28T06:45:36.235Z,1008.91
2022-12-28T06:46:43.473Z,1008.86
2022-12-28T06:47:46.814Z,1008.87
2022-12-28T06:48:50.950Z,1008.83
2022-12-28T06:49:55.049Z,1008.79
2022-12-28T06:50:59.494Z,1008.82
2022-12-28T06:52:03.595Z,1008.78
2022-12-28T06:53:07.779Z,1008.76
2022-12-28T06:54:11.918Z,1008.83
2022-12-28T06:55:16.218Z,1008.82
2022-12-28T06:56:20.381Z,1008.79
2022-12-28T06:57:24.530Z,1008.78
2022-12-28T06:58:28.809Z,1008.73
2022-12-28T06:59:32.874Z,1008.71
2022-12-28T07:00:36.989Z,1008.74
2022-12-28T07:01:41.333Z,1008.68
2022-12-28T07:02:45.463Z,1008.76
2022-12-28T07:03:49.498Z,1008.70
2022-12-28T07:04:53.639Z,1008.70
2022-12-28T07:05:57.886Z,1008.70
2022-12-28T07:07:02.189Z,1008.71
2022-12-28T07:08:12.283Z,1008.72
2022-12-28T07:09:10.436Z,1008.70
2022-12-28T07:10:14.536Z,1008.69
2022-12-28T07:11:18.836Z,1008.68
2022-12-28T07:12:23.030Z,1008.64
2022-12-28T07:13:28.452Z,1008.62
2022-12-28T07:14:31.359Z,1008.62
2022-12-28T07:15:35.554Z,1008.59
2022-12-28T07:17:44.000Z,1008.52
2022-12-28T07:18:48.295Z,1008.47
2022-12-28T07:19:52.451Z,1008.42
2022-12-28T07:20:56.699Z,1008.43
2022-12-28T07:22:00.894Z,1008.48
2022-12-28T07:23:05.064Z,1008.44
2022-12-28T07:24:09.251Z,1008.38
2022-12-28T07:25:13.485Z,1008.34
2022-12-28T07:26:17.610Z,1008.33
2022-12-28T07:27:21.752Z,1008.32
2022-12-28T07:28:26.132Z,1008.33
2022-12-28T07:29:31.190Z,1008.34
2022-12-28T07:30:34.939Z,1008.31
2022-12-28T07:31:44.661Z,1008.27
2022-12-28T07:32:43.392Z,1008.29
2022-12-28T07:33:47.545Z,1008.34
2022-12-28T07:34:51.742Z,1008.36
2022-12-28T07:35:55.889Z,1008.40
2022-12-28T07:37:00.054Z,1008.41
2022-12-28T07:38:04.260Z,1008.39
2022-12-28T07:40:34.836Z,1008.26
2022-12-28T07:41:39.052Z,1008.31
2022-12-28T07:42:43.276Z,1008.44
2022-12-28T07:43:47.531Z,1008.52
2022-12-28T07:44:51.719Z,1008.48
2022-12-28T07:45:55.834Z,1008.39
2022-12-28T07:47:00.142Z,1008.33
2022-12-28T07:48:18.366Z,1008.31
2022-12-28T07:49:21.428Z,1008.23
2022-12-28T07:50:25.671Z,1008.24
2022-12-28T07:51:29.884Z,1008.29
2022-12-28T07:52:34.056Z,1008.34
2022-12-28T07:53:38.253Z,1008.37
2022-12-28T07:54:42.458Z,1008.34
2022-12-28T07:55:46.654Z,1008.31
2022-12-28T07:56:50.828Z,1008.21
2022-12-28T07:57:55.108Z,1008.19
2022-12-28T07:59:00.225Z,1008.17
2022-12-28T08:00:03.961Z,1008.22
2022-12-28T08:01:08.366Z,1008.23
2022-12-28T08:02:13.473Z,1008.13
2022-12-28T08:03:17.301Z,1008.04
2022-12-28T08:04:21.329Z,1008.05
2022-12-28T08:05:25.617Z,1008.12
2022-12-28T08:06:29.772Z,1008.10
2022-12-28T08:07:34.941Z,1008.03
2022-12-28T08:08:38.819Z,1008.02
2022-12-28T08:09:42.991Z,1008.02
2022-12-28T08:10:47.098Z,1008.00
2022-12-28T08:11:51.325Z,1007.94
2022-12-28T08:12:55.606Z,1007.95
2022-12-28T08:13:59.667Z,1007.94
2022-12-28T08:15:04.022Z,1007.89
2022-12-28T08:16:09.112Z,1007.86
2022-12-28T08:17:19.022Z,1007.82
2022-12-28T08:18:18.058Z,1007.76
2022-12-28T08:19:21.854Z,1007.76
2022-12-28T08:20:26.058Z,1007.66
2022-12-28T08:21:30.235Z,1007.69
2022-12-28T08:22:34.399Z,1007.74
2022-12-28T08:23:38.512Z,1007.69
2022-12-28T08:24:42.837Z,1007.70
2022-12-28T08:25:47.026Z,1007.67
2022-12-28T08:26:54.224Z,1007.66
2022-12-28T08:27:57.385Z,1007.63
2022-12-28T08:29:01.529Z,1007.59
2022-12-28T08:30:05.747Z,1007.66
2022-12-28T08:31:10.007Z,1007.74
2022-12-28T08:32:14.039Z,1007.71
2022-12-28T08:33:18.228Z,1007.73
2022-12-28T08:34:22.396Z,1007.73
2022-12-28T08:35:26.688Z,1007.61
2022-12-28T08:36:30.757Z,1007.70
2022-12-28T08:37:35.005Z,1007.78
2022-12-28T08:38:39.118Z,1007.68
2022-12-28T08:39:43.360Z,1007.70
2022-12-28T08:40:48.171Z,1007.70
2022-12-28T08:41:51.822Z,1007.63
2022-12-28T08:42:55.825Z,1007.61
2022-12-28T08:44:00.169Z,1007.64
2022-12-28T08:45:04.287Z,1007.62
2022-12-28T08:46:08.648Z,1007.56
2022-12-28T08:47:12.749Z,1007.57
2022-12-28T08:48:16.904Z,1007.58
2022-12-28T08:49:21.079Z,1007.62
2022-12-28T08:50:31.425Z,1007.59
2022-12-28T08:51:29.631Z,1007.57
2022-12-28T08:52:36.862Z,1007.59
2022-12-28T08:53:40.209Z,1007.55
2022-12-28T08:54:44.370Z,1007.58
2022-12-28T08:55:48.560Z,1007.53
2022-12-28T08:56:52.824Z,1007.48
2022-12-28T08:57:57.000Z,1007.46
2022-12-28T08:59:07.301Z,1007.46
2022-12-28T09:00:10.201Z,1007.49
2022-12-28T09:01:14.511Z,1007.45
2022-12-28T09:02:18.738Z,1007.45
2022-12-28T09:03:22.845Z,1007.42
2022-12-28T09:04:26.940Z,1007.46
2022-12-28T09:05:37.484Z,1007.46
2022-12-28T09:06:35.468Z,1007.42
2022-12-28T09:07:39.612Z,1007.41
2022-12-28T09:08:56.830Z,1007.41
2022-12-28T09:09:48.170Z,1007.42
2022-12-28T09:10:52.276Z,1007.43
2022-12-28T09:11:56.467Z,1007.47
2022-12-28T09:13:00.764Z,1007.46
2022-12-28T09:14:05.023Z,1007.44
2022-12-28T09:15:09.149Z,1007.47
2022-12-28T09:16:13.507Z,1007.45
2022-12-28T09:17:17.571Z,1007.44
2022-12-28T09:18:21.816Z,1007.46
2022-12-28T09:19:26.084Z,1007.50
2022-12-28T09:20:30.122Z,1007.48
2022-12-28T09:21:34.289Z,1007.47
2022-12-28T09:22:38.631Z,1007.44
2022-12-28T09:23:42.885Z,1007.46
2022-12-28T09:24:47.084Z,1007.47
2022-12-28T09:25:51.268Z,1007.42
2022-12-28T09:26:55.549Z,1007.36
2022-12-28T09:27:59.832Z,1007.38
2022-12-28T09:29:03.917Z,1007.38
2022-12-28T09:30:07.997Z,1007.33
2022-12-28T09:31:12.279Z,1007.37
2022-12-28T09:32:16.479Z,1007.48
2022-12-28T09:33:21.692Z,1007.49
2022-12-28T09:34:36.193Z,1007.49
2022-12-28T09:35:29.719Z,1007.55
2022-12-28T09:36:34.009Z,1007.54
2022-12-28T09:37:38.202Z,1007.51
2022-12-28T09:38:42.541Z,1007.49
2022-12-28T09:39:46.667Z,1007.46
2022-12-28T09:40:50.903Z,1007.44
2022-12-28T09:41:55.173Z,1007.43
2022-12-28T09:42:59.389Z,1007.44
2022-12-28T09:44:03.547Z,1007.40
2022-12-28T09:45:07.756Z,1007.41
2022-12-28T09:46:12.149Z,1007.38
2022-12-28T09:47:16.182Z,1007.35
2022-12-28T09:48:20.475Z,1007.33
2022-12-28T09:49:24.700Z,1007.30
2022-12-28T09:50:28.972Z,1007.29
2022-12-28T09:51:33.204Z,1007.23
2022-12-28T09:52:37.440Z,1007.22
2022-12-28T09:53:41.584Z,1007.22
2022-12-28T09:54:45.783Z,1007.18
2022-12-28T09:55:50.106Z,1007.17
2022-12-28T09:56:54.331Z,1007.17
2022-12-28T09:58:01.659Z,1007.18
2022-12-28T09:59:04.943Z,1007.14
2022-12-28T10:00:09.131Z,1007.13
2022-12-28T10:01:13.474Z,1007.15
2022-12-28T10:02:17.546Z,1007.16
2022-12-28T10:03:21.758Z,1007.14
2022-12-28T10:04:26.019Z,1007.13
2022-12-28T10:05:30.253Z,1007.15
2022-12-28T10:06:34.477Z,1007.12
2022-12-28T10:07:38.601Z,1007.13
2022-12-28T10:08:42.892Z,1007.09
2022-12-28T10:09:47.106Z,1007.05
2022-12-28T10:10:51.309Z,1007.07
2022-12-28T10:11:55.500Z,1007.05
2022-12-28T10:12:59.700Z,1007.01
2022-12-28T10:14:04.018Z,1007.05
2022-12-28T10:15:08.228Z,1007.00
2022-12-28T10:16:12.398Z,1007.03
2022-12-28T10:17:16.576Z,1006.99
2022-12-28T10:18:20.884Z,1006.96
2022-12-28T10:19:25.061Z,1007.08
2022-12-28T10:20:29.282Z,1007.08
2022-12-28T10:21:33.602Z,1007.04
2022-12-28T10:22:37.806Z,1006.96
2022-12-28T10:24:12.129Z,1006.95
2022-12-28T10:24:46.296Z,1007.02
2022-12-28T10:25:50.526Z,1007.04
2022-12-28T10:26:54.695Z,1007.07
2022-12-28T10:27:58.981Z,1007.06
2022-12-28T10:29:03.148Z,1007.00
2022-12-28T10:30:07.401Z,1007.03
2022-12-28T10:31:11.575Z,1007.01
2022-12-28T10:32:15.648Z,1007.02
2022-12-28T10:33:19.920Z,1006.92
2022-12-28T10:34:24.182Z,1006.88
2022-12-28T10:35:28.427Z,1006.89
2022-12-28T10:36:32.635Z,1006.96
2022-12-28T10:37:36.764Z,1006.98
2022-12-28T10:38:41.033Z,1007.00
2022-12-28T10:39:45.285Z,1007.08
2022-12-28T10:40:49.529Z,1007.12
2022-12-28T10:41:53.739Z,1007.07
2022-12-28T10:42:57.919Z,1007.08
2022-12-28T10:44:37.473Z,1007.03
2022-12-28T10:45:06.453Z,1007.02
2022-12-28T10:46:10.643Z,1006.93
2022-12-28T10:47:14.796Z,1006.85
2022-12-28T10:48:19.081Z,1006.94
2022-12-28T10:49:23.345Z,1006.87
2022-12-28T10:50:37.038Z,1006.91
2022-12-28T10:51:31.571Z,1006.95
2022-12-28T10:52:35.822Z,1006.91
2022-12-28T10:53:40.168Z,1006.94
2022-12-28T10:54:44.336Z,1006.95
2022-12-28T10:55:49.457Z,1006.88
2022-12-28T10:56:53.267Z,1006.87
2022-12-28T10:58:28.519Z,1006.81
2022-12-28T10:59:01.802Z,1006.82
2022-12-28T11:00:06.065Z,1006.86
2022-12-28T11:01:10.320Z,1006.85
2022-12-28T11:02:14.686Z,1006.86
2022-12-28T11:03:18.748Z,1006.82
2022-12-28T11:04:22.867Z,1006.76
2022-12-28T11:05:27.105Z,1006.73
2022-12-28T11:06:31.343Z,1006.79
2022-12-28T11:07:35.545Z,1006.80
2022-12-28T11:08:39.792Z,1006.77
2022-12-28T11:09:43.975Z,1006.73
2022-12-28T11:10:48.176Z,1006.68
2022-12-28T11:11:52.505Z,1006.68
2022-12-28T11:12:56.671Z,1006.59
2022-12-28T11:14:00.851Z,1006.63
2022-12-28T11:15:05.155Z,1006.65
2022-12-28T11:16:09.332Z,1006.63
2022-12-28T11:17:13.450Z,1006.59
2022-12-28T11:18:17.789Z,1006.61
2022-12-28T11:19:21.793Z,1006.60
2022-12-28T11:20:26.050Z,1006.61
2022-12-28T11:21:30.284Z,1006.54
2022-12-28T11:22:34.570Z,1006.57
2022-12-28T11:23:38.727Z,1006.53
2022-12-28T11:24:42.929Z,1006.49
2022-12-28T11:25:47.156Z,1006.50
2022-12-28T11:26:51.458Z,1006.54
2022-12-28T11:27:55.573Z,1006.49
2022-12-28T11:28:59.796Z,1006.45
2022-12-28T11:30:04.016Z,1006.49
2022-12-28T11:31:08.284Z,1006.49
2022-12-28T11:32:12.537Z,1006.48
2022-12-28T11:33:16.719Z,1006.43
2022-12-28T11:34:21.047Z,1006.46
2022-12-28T11:35:25.347Z,1006.49
2022-12-28T11:36:29.563Z,1006.45
2022-12-28T11:37:33.686Z,1006.44
2022-12-28T11:38:37.852Z,1006.41
2022-12-28T11:39:42.067Z,1006.40
2022-12-28T11:40:46.313Z,1006.41
2022-12-28T11:42:10.424Z,1006.44
2022-12-28T11:42:54.752Z,1006.45
2022-12-28T11:43:58.925Z,1006.44
2022-12-28T11:45:03.171Z,1006.40
2022-12-28T11:46:07.400Z,1006.43
2022-12-28T11:47:11.711Z,1006.48
2022-12-28T11:48:15.987Z,1006.44
2022-12-28T11:49:20.134Z,1006.47
2022-12-28T11:50:24.462Z,1006.41
2022-12-28T11:51:28.693Z,1006.49
2022-12-28T11:52:32.996Z,1006.46
2022-12-28T11:53:37.148Z,1006.39
2022-12-28T11:54:41.434Z,1006.35
2022-12-28T11:55:45.639Z,1006.42
2022-12-28T11:56:49.853Z,1006.36
2022-12-28T11:57:54.039Z,1006.40
2022-12-28T11:58:58.336Z,1006.36
2022-12-28T12:00:02.573Z,1006.39
2022-12-28T12:01:20.758Z,1006.39
2022-12-28T12:02:23.903Z,1006.35
2022-12-28T12:03:28.064Z,1006.37
2022-12-28T12:04:32.155Z,1006.37
2022-12-28T12:05:39.524Z,1006.33
2022-12-28T12:06:42.880Z,1006.34
2022-12-28T12:07:47.137Z,1006.31
2022-12-28T12:08:51.321Z,1006.32
2022-12-28T12:09:55.447Z,1006.28
2022-12-28T12:10:59.674Z,1006.29
2022-12-28T12:12:04.113Z,1006.29
2022-12-28T12:13:08.221Z,1006.26
2022-12-28T12:14:13.532Z,1006.28
2022-12-28T12:15:18.446Z,1006.27
2022-12-28T12:16:22.352Z,1006.27
2022-12-28T12:17:26.430Z,1006.26
2022-12-28T12:18:31.669Z,1006.25
2022-12-28T12:19:35.447Z,1006.27
2022-12-28T12:20:39.723Z,1006.28
2022-12-28T12:21:44.077Z,1006.27
2022-12-28T12:22:48.169Z,1006.27
2022-12-28T12:23:52.496Z,1006.20
2022-12-28T12:24:56.689Z,1006.21
2022-12-28T12:26:00.898Z,1006.20
2022-12-28T12:27:11.902Z,1006.20
2022-12-28T12:28:09.378Z,1006.22
2022-12-28T12:29:13.574Z,1006.18
2022-12-28T12:30:17.797Z,1006.18
2022-12-28T12:31:22.123Z,1006.17
2022-12-28T12:32:26.238Z,1006.14
2022-12-28T12:33:30.485Z,1006.19
2022-12-28T12:34:34.785Z,1006.18
2022-12-28T12:35:38.953Z,1006.19
2022-12-28T12:36:43.057Z,1006.18
2022-12-28T12:37:47.416Z,1006.16
2022-12-28T12:38:51.496Z,1006.17
2022-12-28T12:39:55.671Z,1006.21
2022-12-28T12:41:00.018Z,1006.16
2022-12-28T12:42:04.343Z,1006.18
2022-12-28T12:43:08.519Z,1006.22
2022-12-28T12:44:12.720Z,1006.25
2022-12-28T12:45:17.040Z,1006.24
2022-12-28T12:46:21.314Z,1006.28
2022-12-28T12:47:25.507Z,1006.25
2022-12-28T12:48:29.726Z,1006.21
2022-12-28T12:49:33.950Z,1006.27
2022-12-28T12:50:39.133Z,1006.24
2022-12-28T12:51:43.018Z,1006.18
2022-12-28T12:52:47.199Z,1006.23
2022-12-28T12:53:51.876Z,1006.24
2022-12-28T12:54:56.100Z,1006.18
2022-12-28T12:56:00.381Z,1006.18
2022-12-28T12:57:05.498Z,1006.16
2022-12-28T12:58:10.346Z,1006.18
2022-12-28T12:59:14.433Z,1006.16
2022-12-28T13:00:18.580Z,1006.18